createdAt,value
2018-06-29T00:00:02.732Z,164.57
2018-06-29T00:02:31.260Z,150.13
2018-06-29T00:04:59.795Z,172.40
2018-06-29T00:07:28.274Z,188.27
2018-06-29T00:09:56.836Z,222.50
2018-06-29T00:12:25.341Z,241.83
2018-06-29T00:14:53.893Z,231.33
2018-06-29T00:17:22.376Z,273.47
2018-06-29T00:19:50.880Z,303.20
2018-06-29T00:22:19.361Z,359.80
2018-06-29T00:24:47.893Z,385.50
2018-06-29T00:27:16.381Z,354.30
2018-06-29T00:29:44.559Z,390.83
2018-06-29T00:32:13.081Z,422.00
2018-06-29T00:34:41.562Z,371.07
2018-06-29T00:37:10.156Z,395.67
2018-06-29T00:39:38.699Z,402.90
2018-06-29T00:42:07.384Z,402.93
2018-06-29T00:44:35.950Z,435.33
2018-06-29T00:47:04.187Z,431.43
2018-06-29T00:49:32.667Z,435.67
2018-06-29T00:52:01.229Z,471.40
2018-06-29T00:54:29.722Z,474.77
2018-06-29T00:56:58.213Z,464.57
2018-06-29T00:59:26.729Z,467.60
2018-06-29T01:01:55.749Z,428.63
2018-06-29T01:04:24.265Z,404.10
2018-06-29T01:06:52.809Z,431.40
2018-06-29T01:09:21.333Z,383.00
2018-06-29T01:11:49.844Z,324.97
2018-06-29T01:14:18.384Z,287.37
2018-06-29T01:16:46.878Z,281.23
2018-06-29T01:19:15.399Z,269.90
2018-06-29T01:21:43.898Z,245.50
2018-06-29T01:24:12.468Z,243.90
2018-06-29T01:26:41.169Z,259.07
2018-06-29T01:29:09.418Z,265.00
2018-06-29T01:31:37.960Z,246.53
2018-06-29T01:34:06.503Z,254.47
2018-06-29T01:36:35.054Z,262.53
2018-06-29T01:39:04.139Z,251.60
2018-06-29T01:41:32.774Z,261.63
2018-06-29T01:44:01.184Z,267.63
2018-06-29T01:46:29.691Z,237.40
2018-06-29T01:48:58.174Z,285.00
2018-06-29T01:51:26.900Z,274.07
2018-06-29T01:53:55.400Z,249.37
2018-06-29T01:56:23.965Z,263.90
2018-06-29T01:58:52.621Z,256.90
2018-06-29T02:01:21.250Z,268.00
2018-06-29T02:03:49.471Z,264.53
2018-06-29T02:06:17.996Z,259.87
2018-06-29T02:08:46.567Z,257.33
2018-06-29T02:11:15.101Z,262.53
2018-06-29T02:13:43.597Z,269.77
2018-06-29T02:16:12.133Z,270.53
2018-06-29T02:18:40.626Z,257.63
2018-06-29T02:21:09.176Z,286.50
2018-06-29T02:23:37.732Z,270.90
2018-06-29T02:26:06.261Z,277.80
2018-06-29T02:28:34.801Z,283.37
2018-06-29T02:31:03.401Z,295.07
2018-06-29T02:33:31.938Z,294.00
2018-06-29T02:36:00.501Z,289.90
2018-06-29T02:38:29.008Z,304.90
2018-06-29T02:40:57.483Z,297.90
2018-06-29T02:43:26.017Z,316.77
2018-06-29T02:45:54.543Z,289.13
2018-06-29T02:48:22.787Z,316.47
2018-06-29T02:50:51.251Z,316.73
2018-06-29T02:53:19.785Z,307.03
2018-06-29T02:55:47.982Z,298.03
2018-06-29T02:58:16.529Z,302.47
2018-06-29T03:00:45.025Z,314.87
2018-06-29T03:03:13.577Z,310.33
2018-06-29T03:05:42.076Z,314.10
2018-06-29T03:08:10.622Z,317.73
2018-06-29T03:10:39.152Z,323.47
2018-06-29T03:13:08.021Z,315.43
2018-06-29T03:15:36.524Z,301.20
2018-06-29T03:18:05.181Z,323.70
2018-06-29T03:20:33.760Z,301.83
2018-06-29T03:23:02.253Z,309.53
2018-06-29T03:25:30.788Z,320.57
2018-06-29T03:27:59.335Z,331.93
2018-06-29T03:30:27.813Z,305.00
2018-06-29T03:32:56.402Z,309.60
2018-06-29T03:35:24.921Z,310.13
2018-06-29T03:37:53.657Z,302.93
2018-06-29T03:40:22.373Z,303.70
2018-06-29T03:42:51.056Z,402.17
2018-06-29T03:45:19.752Z,399.47
2018-06-29T03:47:48.290Z,398.03
2018-06-29T03:50:16.786Z,388.47
2018-06-29T03:52:45.254Z,301.70
2018-06-29T03:55:13.848Z,308.17
2018-06-29T03:57:42.396Z,321.43
2018-06-29T04:00:11.212Z,316.77
2018-06-29T04:02:39.780Z,363.03
2018-06-29T04:05:08.590Z,385.70
2018-06-29T04:07:37.108Z,397.63
2018-06-29T04:10:05.676Z,424.10
2018-06-29T04:12:34.213Z,501.70
2018-06-29T04:15:02.756Z,493.90
2018-06-29T04:17:31.281Z,462.00
2018-06-29T04:19:59.810Z,427.07
2018-06-29T04:22:28.291Z,327.57
2018-06-29T04:25:00.172Z,323.77
2018-06-29T04:27:28.386Z,345.33
2018-06-29T04:29:56.935Z,321.20
2018-06-29T04:32:25.457Z,333.00
2018-06-29T04:34:54.048Z,350.37
2018-06-29T04:37:22.568Z,425.60
2018-06-29T04:39:51.494Z,388.30
2018-06-29T04:42:20.017Z,421.77
2018-06-29T04:44:48.565Z,435.53
2018-06-29T04:47:17.324Z,454.90
2018-06-29T04:49:45.817Z,452.73
2018-06-29T04:52:14.332Z,456.60
2018-06-29T04:54:42.816Z,489.93
2018-06-29T04:57:11.371Z,518.70
2018-06-29T04:59:39.937Z,553.43
2018-06-29T05:02:08.194Z,583.43
2018-06-29T05:04:36.725Z,564.83
2018-06-29T05:07:05.378Z,561.17
2018-06-29T05:09:33.729Z,562.90
2018-06-29T05:12:02.268Z,545.30
2018-06-29T05:14:30.872Z,538.03
2018-06-29T05:16:59.421Z,511.73
2018-06-29T05:19:27.996Z,505.33
2018-06-29T05:21:56.493Z,485.23
2018-06-29T05:24:25.168Z,466.53
2018-06-29T05:26:53.709Z,484.63
2018-06-29T05:29:22.507Z,473.70
2018-06-29T05:31:51.066Z,481.80
2018-06-29T05:34:19.577Z,481.87
2018-06-29T05:36:48.141Z,467.33
2018-06-29T05:39:16.662Z,493.13
2018-06-29T05:41:45.296Z,520.23
2018-06-29T05:44:13.757Z,522.00
2018-06-29T05:46:42.553Z,535.00
2018-06-29T05:49:11.048Z,487.40
2018-06-29T05:51:39.572Z,541.63
2018-06-29T05:54:08.151Z,539.43
2018-06-29T05:56:36.733Z,592.13
2018-06-29T05:59:05.327Z,525.80
2018-06-29T06:01:33.936Z,463.57
2018-06-29T06:04:02.519Z,463.10
2018-06-29T06:06:31.081Z,476.97
2018-06-29T06:08:59.580Z,514.10
2018-06-29T06:11:28.145Z,339.77
2018-06-29T06:13:56.629Z,339.93
2018-06-29T06:16:25.267Z,308.20
2018-06-29T06:21:01.981Z,271.43
2018-06-29T06:23:30.552Z,350.60
2018-06-29T06:25:59.114Z,459.33
2018-06-29T06:28:27.681Z,442.10
2018-06-29T06:30:56.249Z,360.33
2018-06-29T06:33:24.787Z,472.67
2018-06-29T06:35:53.342Z,436.53
2018-06-29T06:38:21.930Z,453.93
2018-06-29T06:40:50.456Z,422.90
2018-06-29T06:43:18.993Z,425.77
2018-06-29T06:45:47.581Z,419.87
2018-06-29T06:48:16.128Z,379.37
2018-06-29T06:50:44.681Z,390.77
2018-06-29T06:53:13.192Z,371.93
2018-06-29T06:55:41.796Z,452.67
2018-06-29T06:58:10.047Z,475.00
2018-06-29T07:00:38.565Z,464.57
2018-06-29T07:03:07.136Z,511.33
2018-06-29T07:05:35.708Z,452.07
2018-06-29T07:08:04.335Z,432.47
2018-06-29T07:10:32.860Z,423.83
2018-06-29T07:13:01.421Z,412.17
2018-06-29T07:15:30.047Z,384.10
2018-06-29T07:17:58.810Z,232.73
2018-06-29T07:20:27.325Z,227.87
2018-06-29T07:22:55.881Z,199.20
2018-06-29T07:25:24.383Z,224.77
2018-06-29T07:27:52.971Z,148.37
2018-06-29T07:30:21.648Z,201.63
2018-06-29T07:32:50.195Z,209.87
2018-06-29T07:35:18.749Z,119.17
2018-06-29T07:37:47.292Z,114.93
2018-06-29T07:40:15.843Z,127.80
2018-06-29T07:42:44.341Z,133.23
2018-06-29T07:45:12.920Z,129.90
2018-06-29T07:47:41.459Z,137.83
2018-06-29T07:50:10.015Z,148.93
2018-06-29T07:52:38.559Z,130.40
2018-06-29T07:55:07.752Z,164.93
2018-06-29T07:57:36.279Z,118.70
2018-06-29T08:00:05.208Z,152.57
2018-06-29T08:02:35.121Z,127.27
2018-06-29T08:05:03.809Z,111.13
2018-06-29T08:07:33.817Z,89.33
2018-06-29T08:10:03.383Z,95.73
2018-06-29T08:12:32.053Z,85.27
2018-06-29T08:15:00.641Z,84.03
2018-06-29T08:17:29.135Z,71.53
2018-06-29T08:19:57.664Z,77.33
2018-06-29T08:22:26.173Z,78.77
2018-06-29T08:25:05.289Z,88.17
2018-06-29T08:27:33.816Z,84.00
2018-06-29T08:30:02.790Z,88.37
2018-06-29T08:32:31.348Z,83.83
2018-06-29T08:34:59.902Z,79.00
2018-06-29T08:37:28.420Z,136.50
2018-06-29T08:39:56.970Z,155.47
2018-06-29T08:42:25.660Z,226.80
2018-06-29T08:44:54.173Z,204.17
2018-06-29T08:47:22.786Z,149.57
2018-06-29T08:49:51.382Z,187.30
2018-06-29T08:52:19.948Z,379.77
2018-06-29T08:54:48.519Z,417.83
2018-06-29T08:57:17.145Z,414.67
2018-06-29T08:59:45.686Z,418.20
2018-06-29T09:02:14.206Z,92.53
2018-06-29T09:04:42.704Z,142.00
2018-06-29T09:07:11.389Z,92.27
2018-06-29T09:09:39.976Z,48.30
2018-06-29T09:12:08.560Z,40.27
2018-06-29T09:14:37.046Z,35.87
2018-06-29T09:17:05.677Z,26.00
2018-06-29T09:19:34.286Z,22.23
2018-06-29T09:22:02.812Z,27.40
2018-06-29T09:24:31.312Z,25.50
2018-06-29T09:26:59.886Z,34.20
2018-06-29T09:29:28.407Z,28.10
2018-06-29T09:31:56.958Z,47.07
2018-06-29T09:34:25.520Z,36.23
2018-06-29T09:36:54.114Z,43.47
2018-06-29T09:39:22.379Z,79.37
2018-06-29T09:41:50.998Z,91.07
2018-06-29T09:44:19.573Z,87.23
2018-06-29T09:46:48.395Z,95.17
2018-06-29T09:49:16.923Z,71.27
2018-06-29T09:51:45.409Z,73.43
2018-06-29T09:54:13.933Z,79.20
2018-06-29T09:56:42.483Z,59.00
2018-06-29T09:59:11.018Z,57.63
2018-06-29T10:01:40.144Z,59.87
2018-06-29T10:04:08.697Z,43.93
2018-06-29T10:06:37.200Z,60.93
2018-06-29T10:09:07.947Z,54.50
2018-06-29T10:11:36.600Z,60.13
2018-06-29T10:14:05.340Z,59.63
2018-06-29T10:16:33.893Z,68.67
2018-06-29T10:19:02.520Z,106.77
2018-06-29T10:21:31.020Z,88.50
2018-06-29T10:24:01.089Z,93.73
2018-06-29T10:26:29.736Z,81.90
2018-06-29T10:28:58.301Z,121.67
2018-06-29T10:31:26.821Z,121.87
2018-06-29T10:33:55.381Z,116.50
2018-06-29T10:36:23.966Z,99.30
2018-06-29T10:38:52.503Z,120.43
2018-06-29T10:41:21.152Z,114.93
2018-06-29T10:43:49.656Z,125.60
2018-06-29T10:46:18.277Z,138.80
2018-06-29T10:48:46.828Z,88.80
2018-06-29T10:51:15.364Z,44.90
2018-06-29T10:53:43.872Z,67.23
2018-06-29T10:56:12.475Z,53.10
2018-06-29T10:58:41.009Z,45.20
2018-06-29T11:01:09.610Z,28.43
2018-06-29T11:03:38.181Z,20.07
2018-06-29T11:06:06.722Z,22.60
2018-06-29T11:08:35.277Z,28.87
2018-06-29T11:11:05.526Z,36.50
2018-06-29T11:13:34.117Z,28.73
2018-06-29T11:16:02.339Z,63.63
2018-06-29T11:18:30.906Z,31.63
2018-06-29T11:20:59.404Z,53.17
2018-06-29T11:23:28.001Z,59.33
2018-06-29T11:25:56.507Z,35.70
2018-06-29T11:28:25.056Z,48.27
2018-06-29T11:30:53.624Z,87.00
2018-06-29T11:33:22.129Z,101.90
2018-06-29T11:35:50.668Z,104.60
2018-06-29T11:38:19.192Z,97.00
2018-06-29T11:40:47.769Z,119.97
2018-06-29T11:43:16.339Z,107.10
2018-06-29T11:45:44.909Z,102.10
2018-06-29T11:48:13.465Z,108.60
2018-06-29T11:50:42.046Z,92.27
2018-06-29T11:53:11.275Z,130.33
2018-06-29T11:55:40.629Z,110.20
2018-06-29T11:58:09.174Z,120.00
2018-06-29T12:00:37.874Z,130.83
2018-06-29T12:03:06.376Z,124.67
2018-06-29T12:05:34.876Z,107.00
2018-06-29T12:08:03.475Z,53.37
2018-06-29T12:10:32.002Z,48.33
2018-06-29T12:13:00.524Z,64.00
2018-06-29T12:15:29.132Z,66.80
2018-06-29T12:17:57.338Z,87.20
2018-06-29T12:20:25.889Z,24.40
2018-06-29T12:22:54.399Z,19.07
2018-06-29T12:25:22.947Z,15.57
2018-06-29T12:27:51.462Z,13.13
2018-06-29T12:30:20.031Z,12.57
2018-06-29T12:32:48.238Z,12.23
2018-06-29T12:35:16.801Z,12.80
2018-06-29T12:37:45.322Z,12.07
2018-06-29T12:40:13.944Z,13.03
2018-06-29T12:42:42.480Z,14.37
2018-06-29T12:45:11.078Z,13.90
2018-06-29T12:47:40.620Z,14.23
2018-06-29T12:50:11.717Z,14.67
2018-06-29T12:52:41.882Z,16.50
2018-06-29T12:55:11.318Z,23.07
2018-06-29T12:57:41.693Z,19.47
2018-06-29T13:00:11.773Z,18.40
2018-06-29T13:02:42.548Z,16.13
2018-06-29T13:05:12.742Z,16.40
2018-06-29T13:07:43.860Z,17.83
2018-06-29T13:10:16.506Z,18.67
2018-06-29T13:12:47.993Z,19.80
2018-06-29T13:15:18.970Z,23.90
2018-06-29T13:17:49.295Z,23.90
2018-06-29T13:20:19.662Z,17.47
2018-06-29T13:22:54.143Z,19.67
2018-06-29T13:25:28.196Z,17.57
2018-06-29T13:28:02.146Z,49.43
2018-06-29T13:30:34.441Z,117.60
2018-06-29T13:33:06.920Z,127.47
2018-06-29T13:35:38.569Z,107.03
2018-06-29T13:38:10.009Z,90.23
2018-06-29T13:40:43.074Z,88.77
2018-06-29T13:43:14.537Z,88.37
2018-06-29T13:45:46.360Z,37.77
2018-06-29T13:48:16.475Z,138.07
2018-06-29T13:50:46.683Z,146.70
2018-06-29T13:53:17.474Z,18.67
2018-06-29T13:55:47.452Z,28.13
2018-06-29T13:58:18.359Z,19.20
2018-06-29T14:00:47.583Z,29.30
2018-06-29T14:03:16.263Z,133.60
2018-06-29T14:05:44.783Z,73.73
2018-06-29T14:08:13.028Z,27.93
2018-06-29T14:10:41.532Z,17.60
2018-06-29T14:13:09.763Z,23.93
2018-06-29T14:15:38.305Z,27.20
2018-06-29T14:18:06.674Z,16.70
2018-06-29T14:20:35.200Z,16.97
2018-06-29T14:23:03.749Z,16.67
2018-06-29T14:25:31.974Z,15.93
2018-06-29T14:28:00.768Z,16.30
2018-06-29T14:30:29.336Z,15.30
2018-06-29T14:32:57.985Z,29.67
2018-06-29T14:35:26.573Z,40.00
2018-06-29T14:37:54.771Z,47.17
2018-06-29T14:40:23.352Z,37.20
2018-06-29T14:42:52.009Z,36.83
2018-06-29T14:45:20.264Z,31.33
2018-06-29T14:47:48.773Z,59.73
2018-06-29T14:50:17.304Z,51.73
2018-06-29T14:52:45.865Z,38.60
2018-06-29T14:55:14.398Z,41.63
2018-06-29T14:57:42.966Z,36.03
2018-06-29T15:00:11.958Z,28.00
2018-06-29T15:02:41.197Z,24.47
2018-06-29T15:05:10.201Z,21.80
2018-06-29T15:07:38.845Z,42.43
2018-06-29T15:10:07.547Z,44.87
2018-06-29T15:12:36.117Z,37.47
2018-06-29T15:15:04.794Z,25.33
2018-06-29T15:17:33.518Z,32.70
2018-06-29T15:20:02.102Z,32.10
2018-06-29T15:22:30.637Z,13.10
2018-06-29T15:24:59.428Z,10.13
2018-06-29T15:27:28.143Z,15.10
2018-06-29T15:29:56.742Z,14.93
2018-06-29T15:32:24.959Z,21.63
2018-06-29T15:34:53.475Z,33.83
2018-06-29T15:37:21.974Z,29.13
2018-06-29T15:39:50.569Z,57.00
2018-06-29T15:42:19.019Z,63.57
2018-06-29T15:44:47.580Z,108.07
2018-06-29T15:47:16.096Z,140.87
2018-06-29T15:49:44.622Z,97.17
2018-06-29T15:52:13.151Z,98.27
2018-06-29T15:54:41.627Z,63.43
2018-06-29T15:57:10.141Z,51.13
2018-06-29T15:59:38.626Z,57.20
2018-06-29T16:02:07.135Z,85.57
2018-06-29T16:04:35.623Z,140.33
2018-06-29T16:07:04.203Z,98.70
2018-06-29T16:09:32.683Z,90.87
2018-06-29T16:12:01.231Z,84.17
2018-06-29T16:14:29.688Z,127.07
2018-06-29T16:16:58.207Z,160.37
2018-06-29T16:19:26.720Z,169.07
2018-06-29T16:21:55.256Z,169.30
2018-06-29T16:24:23.877Z,153.87
2018-06-29T16:26:52.732Z,142.13
2018-06-29T16:29:21.424Z,58.23
2018-06-29T16:31:49.955Z,43.57
2018-06-29T16:34:18.485Z,53.67
2018-06-29T16:36:46.943Z,43.83
2018-06-29T16:39:15.491Z,66.43
2018-06-29T16:41:43.963Z,98.13
2018-06-29T16:44:12.459Z,50.73
2018-06-29T16:46:40.964Z,42.47
2018-06-29T16:49:09.483Z,38.73
2018-06-29T16:51:40.729Z,55.87
2018-06-29T16:54:09.315Z,47.13
2018-06-29T16:56:37.795Z,57.23
2018-06-29T16:59:06.319Z,60.83
2018-06-29T17:01:34.793Z,64.20
2018-06-29T17:04:02.998Z,112.40
2018-06-29T17:06:31.518Z,109.70
2018-06-29T17:08:59.996Z,85.03
2018-06-29T17:11:28.795Z,84.10
2018-06-29T17:13:57.335Z,65.07
2018-06-29T17:16:26.259Z,56.23
2018-06-29T17:18:54.891Z,63.13
2018-06-29T17:21:23.301Z,46.13
2018-06-29T17:23:51.796Z,50.87
2018-06-29T17:26:20.317Z,48.10
2018-06-29T17:28:48.894Z,37.03
2018-06-29T17:31:17.377Z,43.67
2018-06-29T17:33:45.925Z,43.10
2018-06-29T17:36:14.439Z,31.73
2018-06-29T17:38:42.942Z,49.07
2018-06-29T17:41:11.456Z,45.33
2018-06-29T17:43:40.503Z,50.07
2018-06-29T17:46:09.105Z,43.00
2018-06-29T17:48:37.614Z,40.47
2018-06-29T17:51:06.382Z,53.27
2018-06-29T17:53:34.918Z,30.40
2018-06-29T17:56:03.575Z,13.47
2018-06-29T17:58:32.152Z,11.33
2018-06-29T18:01:00.334Z,17.17
2018-06-29T18:03:28.798Z,20.03
2018-06-29T18:05:59.355Z,14.87
2018-06-29T18:08:29.436Z,18.43
2018-06-29T18:10:57.694Z,36.63
2018-06-29T18:13:25.901Z,26.97
2018-06-29T18:15:54.499Z,32.80
2018-06-29T18:18:23.024Z,96.60
2018-06-29T18:20:51.512Z,112.87
2018-06-29T18:23:20.120Z,166.93
2018-06-29T18:25:48.641Z,153.27
2018-06-29T18:28:17.161Z,150.13
2018-06-29T18:30:45.719Z,109.33
2018-06-29T18:33:17.976Z,114.30
2018-06-29T18:35:49.260Z,100.00
2018-06-29T18:38:17.776Z,99.40
2018-06-29T18:40:46.330Z,100.73
2018-06-29T18:43:14.833Z,96.37
2018-06-29T18:45:43.329Z,73.30
2018-06-29T18:48:11.825Z,68.67
2018-06-29T18:50:40.327Z,81.07
2018-06-29T18:53:08.851Z,24.63
2018-06-29T18:55:37.387Z,21.30
2018-06-29T18:58:06.181Z,27.23
2018-06-29T19:00:39.171Z,21.50
2018-06-29T19:03:07.736Z,21.40
2018-06-29T19:05:36.209Z,27.93
2018-06-29T19:08:04.731Z,30.03
2018-06-29T19:10:33.164Z,32.50
2018-06-29T19:13:01.681Z,24.40
2018-06-29T19:15:30.133Z,41.17
2018-06-29T19:17:58.602Z,123.20
2018-06-29T19:20:27.136Z,87.20
2018-06-29T19:22:55.576Z,81.57
2018-06-29T19:25:24.200Z,80.30
2018-06-29T19:27:52.761Z,43.53
2018-06-29T19:30:21.279Z,156.70
2018-06-29T19:32:49.896Z,193.10
2018-06-29T19:35:18.372Z,143.00
2018-06-29T19:37:47.248Z,89.73
2018-06-29T19:40:15.792Z,83.47
2018-06-29T19:42:44.239Z,98.73
2018-06-29T19:45:12.809Z,118.13
2018-06-29T19:47:41.331Z,163.07
2018-06-29T19:50:09.911Z,235.23
2018-06-29T19:52:38.452Z,296.77
2018-06-29T19:55:06.970Z,274.90
2018-06-29T19:57:35.546Z,230.53
2018-06-29T20:00:04.185Z,206.97
2018-06-29T20:02:32.718Z,179.03
2018-06-29T20:05:01.271Z,145.53
2018-06-29T20:07:29.769Z,122.97
2018-06-29T20:09:58.318Z,86.20
2018-06-29T20:12:26.822Z,97.70
2018-06-29T20:14:55.338Z,90.93
2018-06-29T20:17:23.876Z,96.63
2018-06-29T20:19:52.366Z,95.70
2018-06-29T20:22:20.907Z,102.07
2018-06-29T20:24:49.362Z,100.83
2018-06-29T20:27:17.845Z,102.73
2018-06-29T20:29:46.346Z,122.83
2018-06-29T20:32:14.866Z,143.37
2018-06-29T20:34:43.417Z,126.10
2018-06-29T20:37:11.925Z,120.03
2018-06-29T20:39:40.468Z,119.13
2018-06-29T20:42:09.061Z,112.40
2018-06-29T20:44:37.579Z,128.77
2018-06-29T20:47:06.067Z,118.80
2018-06-29T20:49:34.617Z,118.03
2018-06-29T20:52:03.089Z,116.23
2018-06-29T20:54:31.605Z,202.87
2018-06-29T20:57:00.124Z,148.30
2018-06-29T20:59:28.633Z,152.60
2018-06-29T21:01:57.128Z,140.17
2018-06-29T21:04:25.605Z,136.83
2018-06-29T21:06:54.106Z,142.70
2018-06-29T21:09:22.548Z,138.93
2018-06-29T21:11:51.011Z,152.87
2018-06-29T21:14:19.520Z,157.70
2018-06-29T21:16:47.970Z,158.60
2018-06-29T21:19:16.169Z,174.00
2018-06-29T21:21:44.642Z,173.57
2018-06-29T21:24:13.184Z,200.13
2018-06-29T21:26:41.671Z,204.13
2018-06-29T21:29:10.135Z,218.10
2018-06-29T21:31:38.607Z,236.33
2018-06-29T21:34:07.107Z,238.47
2018-06-29T21:36:35.579Z,210.13
2018-06-29T21:39:06.990Z,236.73
2018-06-29T21:41:35.517Z,242.00
2018-06-29T21:44:04.131Z,225.90
2018-06-29T21:46:32.811Z,241.73
2018-06-29T21:49:01.439Z,240.17
2018-06-29T21:51:30.004Z,243.97
2018-06-29T21:53:58.598Z,262.83
2018-06-29T21:56:27.112Z,251.10
2018-06-29T21:58:56.468Z,274.63
2018-06-29T22:01:25.036Z,280.93
2018-06-29T22:03:54.051Z,290.17
2018-06-29T22:06:22.466Z,298.27
2018-06-29T22:08:51.040Z,310.57
2018-06-29T22:11:20.018Z,289.83
2018-06-29T22:13:48.508Z,295.03
2018-06-29T22:16:17.036Z,274.63
2018-06-29T22:18:45.583Z,297.90
2018-06-29T22:21:14.168Z,232.53
2018-06-29T22:23:42.756Z,263.10
2018-06-29T22:26:11.241Z,235.07
2018-06-29T22:28:39.930Z,275.97
2018-06-29T22:31:08.408Z,225.77
2018-06-29T22:33:36.956Z,223.53
2018-06-29T22:36:05.142Z,247.27
2018-06-29T22:38:33.687Z,265.67
2018-06-29T22:41:02.185Z,248.10
2018-06-29T22:43:30.729Z,269.63
2018-06-29T22:45:59.286Z,259.63
2018-06-29T22:48:27.816Z,192.50
2018-06-29T22:50:56.946Z,214.27
2018-06-29T22:53:25.469Z,235.83
2018-06-29T22:55:56.715Z,261.63
2018-06-29T22:58:25.272Z,249.93
2018-06-29T23:00:54.035Z,338.17
2018-06-29T23:03:23.720Z,409.37
2018-06-29T23:05:52.861Z,448.83
2018-06-29T23:08:21.325Z,453.97
2018-06-29T23:10:49.832Z,393.20
2018-06-29T23:13:18.693Z,440.80
2018-06-29T23:15:48.499Z,409.83
2018-06-29T23:18:16.978Z,364.20
2018-06-29T23:20:46.003Z,360.47
2018-06-29T23:23:14.508Z,364.17
2018-06-29T23:25:43.253Z,347.73
2018-06-29T23:28:11.699Z,281.67
2018-06-29T23:30:40.358Z,262.03
2018-06-29T23:33:08.846Z,278.80
2018-06-29T23:35:37.332Z,318.37
2018-06-29T23:38:06.132Z,345.13
2018-06-29T23:40:34.631Z,314.13
2018-06-29T23:43:03.078Z,280.10
2018-06-29T23:45:31.654Z,317.33
2018-06-29T23:48:00.088Z,401.83
2018-06-29T23:50:28.566Z,332.93
2018-06-29T23:52:57.066Z,283.10
2018-06-29T23:55:25.577Z,242.50
2018-06-29T23:57:54.043Z,204.33
